»·PEaware :: N5077J KSNA-KCRQ

N5077J :: KSNA-KCRQ

FLIGHT INFORMATION

Flight Status: Arrived
Operator: Privately registered:
United States
More flights under this callsign
Pilot: Timothy L. (20714)
Aircraft: CESSNA 310
(C310)
More flights by this aircraft type
Origin: KSNA John Wayne-Orange Co
United States
Destination: KCRQ McClellan-Palomar
United States
More flights between these airports :: More routes between these airports
Route: +V23 OCN
File this flight plan on PilotEdge
Remarks: I2 Rating
Altitude:
(Current/Filed)
5,000ft
Speed:
(Current/Filed)
170kts
Departed: 14-Aug-19 10:38 AM
Arrived: 14-Aug-19 11:30 AM
Distance/Time
Traveled:
44nm/0:52
Distance/Time
To Go:
Arrived

Flight Plot

Page will automatically refresh every two minutes.


Map Options




Map Legend


Flown Route
Filed Route
Departure Airport
Arrival Airport
Navaid (VOR, NDB)
Fix

Horizontal Profiles

Position Reports

Time Latitude Longitude Heading Altitude Ground
Speed
14-Aug-19 10:16 33.671199 -117.868020 211 59ft 0kts
14-Aug-19 10:17 33.671199 -117.868020 211 59ft 0kts
14-Aug-19 10:18 33.671199 -117.868020 211 59ft 0kts
14-Aug-19 10:19 33.671199 -117.868020 211 59ft 0kts
14-Aug-19 10:20 33.671199 -117.868020 211 59ft 0kts
14-Aug-19 10:21 33.671199 -117.868020 211 59ft 0kts
14-Aug-19 10:22 33.671199 -117.868020 211 59ft 0kts
14-Aug-19 10:23 33.671199 -117.868020 211 59ft 0kts
14-Aug-19 10:24 33.671199 -117.868020 211 59ft 0kts
14-Aug-19 10:25 33.671199 -117.868020 211 59ft 0kts
14-Aug-19 10:26 33.671199 -117.868020 211 59ft 0kts
14-Aug-19 10:27 33.671199 -117.868020 211 59ft 0kts
14-Aug-19 10:28 33.671199 -117.868020 211 59ft 0kts
14-Aug-19 10:29 33.671199 -117.868020 211 59ft 0kts
14-Aug-19 10:30 33.671174 -117.868448 330 60ft 8kts
14-Aug-19 10:31 33.673407 -117.867054 5 60ft 17kts
14-Aug-19 10:32 33.676001 -117.865878 26 60ft 17kts
14-Aug-19 10:33 33.678734 -117.864148 28 60ft 18kts
14-Aug-19 10:34 33.679983 -117.863649 300 60ft 0kts
14-Aug-19 10:35 33.679983 -117.863649 300 60ft 0kts
14-Aug-19 10:36 33.679983 -117.863649 300 60ft 0kts
14-Aug-19 10:37 33.673845 -117.868182 209 150ft 110kts
14-Aug-19 10:38 33.651468 -117.879564 186 1363ft 138kts
14-Aug-19 10:39 33.622887 -117.882441 184 2099ft 169kts
14-Aug-19 10:40 33.594392 -117.884824 184 2821ft 175kts
14-Aug-19 10:41 33.564143 -117.887157 183 3565ft 178kts
14-Aug-19 10:42 33.543196 -117.874917 106 4202ft 175kts
14-Aug-19 10:43 33.535481 -117.847739 109 4794ft 174kts
14-Aug-19 10:44 33.526845 -117.817460 99 4996ft 194kts
14-Aug-19 10:45 33.528540 -117.787604 81 5004ft 204kts
14-Aug-19 10:46 33.527694 -117.760165 105 5000ft 208kts
14-Aug-19 10:47 33.516649 -117.735286 127 5002ft 208kts
14-Aug-19 10:48 33.500024 -117.712951 135 5001ft 204kts
14-Aug-19 10:49 33.482542 -117.692273 136 5003ft 202kts
14-Aug-19 10:50 33.465011 -117.671906 136 5005ft 201kts
14-Aug-19 10:51 33.447907 -117.652000 136 5006ft 201kts
14-Aug-19 10:52 33.431223 -117.632556 137 5007ft 198kts
14-Aug-19 10:53 33.414004 -117.612822 137 5008ft 196kts
14-Aug-19 10:54 33.396215 -117.592435 137 5009ft 195kts
14-Aug-19 10:55 33.377046 -117.570231 137 5008ft 194kts
14-Aug-19 10:56 33.356497 -117.545309 137 5007ft 193kts
14-Aug-19 10:57 33.333172 -117.519152 139 5006ft 191kts
14-Aug-19 10:58 33.309248 -117.493165 139 5005ft 190kts
14-Aug-19 10:59 33.282293 -117.464007 139 5004ft 189kts
14-Aug-19 11:00 33.255640 -117.435874 140 4999ft 175kts
14-Aug-19 11:01 33.237692 -117.406435 85 5008ft 171kts
14-Aug-19 11:02 33.240143 -117.369569 87 4996ft 162kts
14-Aug-19 11:03 33.242107 -117.333427 88 4993ft 159kts
14-Aug-19 11:04 33.243570 -117.296962 88 4991ft 156kts
14-Aug-19 11:05 33.244701 -117.264005 88 4990ft 140kts
14-Aug-19 11:06 33.245643 -117.233734 88 4993ft 132kts
14-Aug-19 11:08 33.246491 -117.202538 88 4996ft 129kts
14-Aug-19 11:09 33.247199 -117.172152 88 4997ft 127kts
14-Aug-19 11:10 33.247787 -117.142442 88 4998ft 126kts
14-Aug-19 11:11 33.248414 -117.109600 88 5005ft 149kts
14-Aug-19 11:12 33.249047 -117.073476 88 5004ft 158kts
14-Aug-19 11:13 33.249738 -117.036000 88 5006ft 162kts
14-Aug-19 11:14 33.241972 -116.999839 111 5009ft 164kts
14-Aug-19 11:15 33.229750 -116.960635 110 4322ft 183kts
14-Aug-19 11:16 33.204198 -116.938237 195 3697ft 173kts
14-Aug-19 11:17 33.184725 -116.963725 242 3453ft 122kts
14-Aug-19 11:18 33.172422 -116.987732 240 2973ft 112kts
14-Aug-19 11:19 33.162971 -117.010955 261 3436ft 114kts
14-Aug-19 11:20 33.158459 -117.037741 268 3642ft 126kts
14-Aug-19 11:21 33.159501 -117.068018 280 3614ft 137kts
14-Aug-19 11:22 33.165429 -117.096791 285 3642ft 135kts
14-Aug-19 11:23 33.159391 -117.124162 229 3359ft 150kts
14-Aug-19 11:24 33.144088 -117.151968 252 2623ft 156kts
14-Aug-19 11:25 33.133135 -117.183104 250 2460ft 110kts
14-Aug-19 11:25 33.134644 -117.202974 291 1377ft 104kts
14-Aug-19 11:27 33.136289 -117.230850 261 1182ft 111kts
14-Aug-19 11:28 33.132197 -117.256017 259 685ft 109kts
14-Aug-19 11:28 33.128940 -117.275726 258 335ft 73kts
14-Aug-19 11:30 33.127573 -117.279967 221 334ft 0kts
14-Aug-19 11:30 33.127284 -117.281043 259 335ft 13kts
14-Aug-19 11:31 33.126840 -117.281546 89 334ft 0kts
14-Aug-19 11:33 33.126840 -117.281546 89 334ft 0kts
14-Aug-19 11:33 33.126840 -117.281546 89 335ft 0kts
14-Aug-19 11:35 33.126840 -117.281546 89 334ft 0kts
14-Aug-19 11:35 33.126840 -117.281546 89 335ft 0kts
14-Aug-19 11:36 33.126840 -117.281546 89 335ft 0kts
14-Aug-19 11:37 33.126840 -117.281546 89 335ft 0kts
14-Aug-19 11:38 33.126840 -117.281546 89 335ft 0kts
14-Aug-19 11:39 33.126840 -117.281546 89 335ft 0kts
14-Aug-19 11:40 33.126840 -117.281546 89 335ft 0kts
14-Aug-19 11:41 33.126840 -117.281546 89 335ft 0kts
14-Aug-19 11:42 33.126840 -117.281546 89 335ft 0kts
14-Aug-19 11:43 33.126840 -117.281546 89 335ft 0kts

Navigation Log

Ident Type
Flight plan parsing failed, navigation log unavailable